Time;durP1;ratioP1;P1;durP2;ratioP2;P2;SDS_P1;SDS_P2;PMS_P1;PMS_P2;Temp;Humidity;BMP_temperature;BMP_pressure;BME280_temperature;BME280_humidity;BME280_pressure;Samples;Min_cycle;Max_cycle;Signal;HPM_P1;HPM_P2
2021/07/22 00:01:28;;;;;;;9.88;8.48;;;18.80;96.90;;;;;;5023080;28;20033;-77
2021/07/22 00:03:55;;;;;;;13.65;8.93;;;18.70;97.10;;;;;;5023356;28;20041;-77
2021/07/22 00:06:21;;;;;;;11.57;8.60;;;18.70;97.20;;;;;;5021244;28;20476;-77
2021/07/22 00:08:47;;;;;;;10.65;9.05;;;18.70;97.40;;;;;;5044041;28;20040;-78
2021/07/22 00:11:14;;;;;;;12.35;9.23;;;18.60;97.40;;;;;;5041988;28;20032;-77
2021/07/22 00:13:40;;;;;;;18.63;14.98;;;18.60;97.60;;;;;;5040955;28;20468;-77
2021/07/22 00:16:17;;;;;;;20.83;16.50;;;18.50;97.80;;;;;;5025984;28;20041;-78
2021/07/22 00:18:43;;;;;;;29.48;20.40;;;18.50;98.00;;;;;;5021590;28;20044;-78
2021/07/22 00:21:10;;;;;;;21.10;15.85;;;18.50;98.10;;;;;;5043029;28;20037;-77
2021/07/22 00:23:36;;;;;;;19.25;15.15;;;18.40;98.20;;;;;;5007107;28;20045;-77
2021/07/22 00:26:06;;;;;;;16.63;12.43;;;18.30;98.30;;;;;;5044453;28;20877;-78
2021/07/22 00:28:33;;;;;;;14.93;10.32;;;18.30;98.50;;;;;;5045011;28;20036;-78
2021/07/22 00:30:59;;;;;;;12.38;9.75;;;18.30;98.60;;;;;;5044431;28;20582;-79
2021/07/22 00:33:26;;;;;;;15.10;11.02;;;18.20;98.80;;;;;;4977339;28;20056;-78
2021/07/22 00:35:53;;;;;;;14.50;11.25;;;18.30;98.90;;;;;;5043738;28;20040;-78
2021/07/22 00:38:20;;;;;;;15.85;11.80;;;18.30;99.10;;;;;;5010517;28;20029;-78
2021/07/22 00:40:47;;;;;;;17.23;12.48;;;18.30;99.20;;;;;;5044172;28;20041;-78
2021/07/22 00:43:14;;;;;;;16.48;12.82;;;18.30;99.30;;;;;;5008040;28;20056;-78
2021/07/22 00:45:40;;;;;;;12.57;9.35;;;18.30;99.30;;;;;;4992143;28;20152;-78
2021/07/22 00:48:07;;;;;;;12.13;9.38;;;18.30;99.40;;;;;;5042669;28;20045;-77
2021/07/22 00:50:33;;;;;;;13.52;9.70;;;18.20;99.40;;;;;;5024935;28;20037;-78
2021/07/22 00:53:01;;;;;;;23.20;16.35;;;18.20;99.50;;;;;;4990473;28;20409;-78
2021/07/22 00:55:29;;;;;;;32.72;22.20;;;18.20;99.70;;;;;;5026038;28;20044;-79
2021/07/22 00:57:57;;;;;;;33.47;20.27;;;18.10;99.80;;;;;;5044085;28;20025;-79
2021/07/22 01:00:27;;;;;;;23.98;14.00;;;18.10;99.90;;;;;;5023964;28;20502;-79
2021/07/22 01:02:54;;;;;;;17.52;11.48;;;18.10;99.90;;;;;;5008929;28;20049;-80
2021/07/22 01:05:23;;;;;;;13.73;9.32;;;18.00;99.90;;;;;;5008056;28;20063;-80
2021/07/22 01:07:50;;;;;;;13.48;9.10;;;18.10;99.90;;;;;;5041144;28;20068;-80
2021/07/22 01:10:17;;;;;;;11.52;8.88;;;18.00;99.90;;;;;;5025422;28;20040;-79
2021/07/22 01:12:44;;;;;;;12.25;9.27;;;18.00;99.90;;;;;;4994659;28;20044;-79
2021/07/22 01:15:11;;;;;;;13.00;9.15;;;17.90;99.90;;;;;;4990931;28;20052;-79
2021/07/22 01:17:47;;;;;;;12.18;8.90;;;17.80;99.90;;;;;;5020255;28;20045;-79
2021/07/22 01:20:19;;;;;;;13.95;9.27;;;17.80;99.90;;;;;;5039454;28;20037;-78
2021/07/22 01:22:48;;;;;;;10.93;8.45;;;17.80;99.90;;;;;;5036963;28;20053;-79
2021/07/22 01:25:16;;;;;;;9.27;7.68;;;17.80;99.90;;;;;;5019783;28;20028;-79
2021/07/22 01:27:43;;;;;;;11.10;8.75;;;17.80;99.90;;;;;;5020343;28;20049;-78
2021/07/22 01:30:12;;;;;;;12.55;9.48;;;17.80;99.90;;;;;;5021072;28;20029;-79
2021/07/22 01:32:39;;;;;;;11.48;8.88;;;17.80;99.90;;;;;;5039227;28;20052;-79
2021/07/22 01:35:07;;;;;;;13.25;9.82;;;17.80;99.90;;;;;;5003471;28;20739;-79
2021/07/22 01:37:34;;;;;;;12.10;9.40;;;17.70;99.90;;;;;;5007314;28;20045;-80
2021/07/22 01:40:10;;;;;;;11.57;9.63;;;17.70;99.90;;;;;;4994027;28;20041;-80
2021/07/22 01:42:37;;;;;;;10.38;8.63;;;17.70;99.90;;;;;;5023928;28;20056;-81
2021/07/22 01:45:07;;;;;;;12.27;9.15;;;17.70;99.90;;;;;;5024837;28;20507;-79
2021/07/22 01:47:41;;;;;;;12.63;8.82;;;17.70;99.90;;;;;;5026223;28;20067;-79
2021/07/22 01:50:09;;;;;;;12.50;8.40;;;17.70;99.90;;;;;;5023501;28;20104;-80
2021/07/22 01:52:40;;;;;;;12.48;8.25;;;17.60;99.90;;;;;;5013552;28;20056;-80
2021/07/22 01:55:07;;;;;;;13.38;9.32;;;17.60;99.90;;;;;;5046299;28;20081;-78
2021/07/22 01:57:40;;;;;;;11.55;9.10;;;17.60;99.90;;;;;;5016084;28;20056;-82
2021/07/22 02:00:09;;;;;;;13.18;9.50;;;17.60;99.90;;;;;;5014822;28;20049;-80
2021/07/22 02:02:44;;;;;;;12.57;9.48;;;17.50;99.90;;;;;;5031490;28;20028;-82
2021/07/22 02:05:15;;;;;;;12.57;9.32;;;17.50;99.90;;;;;;5014602;28;20045;-81
2021/07/22 02:07:43;;;;;;;13.57;9.65;;;17.50;99.90;;;;;;5021478;28;20033;-82
2021/07/22 02:10:12;;;;;;;13.77;10.20;;;17.40;99.90;;;;;;4999698;28;20081;-80
2021/07/22 02:12:39;;;;;;;15.93;11.40;;;17.40;99.90;;;;;;5011818;28;20064;-81
2021/07/22 02:15:11;;;;;;;14.85;10.38;;;17.40;99.90;;;;;;5027998;28;20045;-80
2021/07/22 02:17:41;;;;;;;11.98;9.93;;;17.40;99.90;;;;;;5014882;28;20048;-79
2021/07/22 02:20:08;;;;;;;14.55;10.73;;;17.30;99.90;;;;;;5014914;28;20056;-81
2021/07/22 02:22:35;;;;;;;16.27;11.68;;;17.30;99.90;;;;;;5030321;28;20380;-81
2021/07/22 02:25:21;;;;;;;22.13;15.00;;;17.30;99.90;;;;;;5019658;28;20048;-81
2021/07/22 02:27:54;;;;;;;18.58;13.38;;;17.30;99.90;;;;;;5000015;28;20056;-80
2021/07/22 02:30:21;;;;;;;17.00;13.75;;;17.30;99.90;;;;;;5047414;28;20045;-80
2021/07/22 02:32:48;;;;;;;16.88;13.20;;;17.30;99.90;;;;;;5026787;28;20053;-80
2021/07/22 02:35:15;;;;;;;15.88;12.25;;;17.30;99.90;;;;;;4996070;28;20061;-80
2021/07/22 02:38:01;;;;;;;20.27;13.88;;;17.30;99.90;;;;;;5017848;28;20036;-81
2021/07/22 02:40:30;;;;;;;16.23;11.70;;;17.30;99.90;;;;;;5011874;28;20500;-81
2021/07/22 02:42:57;;;;;;;16.90;13.43;;;17.30;99.90;;;;;;5044417;28;20036;-81
2021/07/22 02:45:27;;;;;;;15.50;12.85;;;17.30;99.90;;;;;;5007265;28;20040;-80
2021/07/22 02:47:56;;;;;;;17.63;12.65;;;17.30;99.90;;;;;;4997422;28;20045;-81
2021/07/22 02:50:22;;;;;;;15.57;11.88;;;17.20;99.90;;;;;;5030384;28;20067;-81
2021/07/22 02:52:54;;;;;;;16.15;12.75;;;17.20;99.90;;;;;;5007439;28;20045;-79
2021/07/22 02:55:20;;;;;;;15.68;11.63;;;17.10;99.90;;;;;;5029689;28;20036;-80
2021/07/22 02:57:47;;;;;;;16.58;12.82;;;17.10;99.90;;;;;;5011455;28;20045;-78
2021/07/22 03:00:15;;;;;;;14.60;11.80;;;17.10;99.90;;;;;;5028456;28;20396;-77
2021/07/22 03:02:43;;;;;;;15.25;11.23;;;17.10;99.90;;;;;;5028761;28;20063;-77
2021/07/22 03:05:10;;;;;;;17.00;13.25;;;17.00;99.90;;;;;;5027716;28;20044;-77
2021/07/22 03:07:38;;;;;;;19.00;14.32;;;17.00;99.90;;;;;;5044433;28;20737;-79
2021/07/22 03:10:05;;;;;;;18.58;13.43;;;17.00;99.90;;;;;;5012916;28;20053;-80
2021/07/22 03:12:32;;;;;;;15.68;11.65;;;16.90;99.90;;;;;;5023630;28;20410;-78
2021/07/22 03:15:01;;;;;;;13.80;10.18;;;16.90;99.90;;;;;;5027769;28;20037;-81
2021/07/22 03:17:29;;;;;;;20.27;14.93;;;16.80;99.90;;;;;;4994702;28;20041;-79
2021/07/22 03:20:00;;;;;;;17.50;12.30;;;16.80;99.90;;;;;;5044983;28;20471;-80
2021/07/22 03:22:37;;;;;;;17.20;12.40;;;16.80;99.90;;;;;;5011488;28;20824;-78
2021/07/22 03:25:17;;;;;;;20.52;13.40;;;16.80;99.90;;;;;;5028495;28;20523;-81
2021/07/22 03:28:04;;;;;;;17.42;12.43;;;16.80;99.90;;;;;;5030992;28;20048;-81
2021/07/22 03:30:42;;;;;;;17.52;11.45;;;16.80;99.90;;;;;;5045629;28;20037;-80
2021/07/22 03:33:37;;;;;;;13.77;11.00;;;16.80;99.90;;;;;;5020354;28;20055;-80
2021/07/22 03:36:12;;;;;;;18.33;11.85;;;16.80;99.90;;;;;;5027225;28;20044;-80
2021/07/22 03:38:43;;;;;;;15.68;10.55;;;16.70;99.90;;;;;;5045744;28;20064;-80
2021/07/22 03:41:33;;;;;;;14.88;10.75;;;16.70;99.90;;;;;;5036486;28;20477;-81
2021/07/22 03:44:10;;;;;;;17.15;11.82;;;16.60;99.90;;;;;;5029120;28;20048;-81
2021/07/22 03:46:38;;;;;;;15.20;11.13;;;16.60;99.90;;;;;;5009271;28;20049;-81
2021/07/22 03:49:06;;;;;;;15.60;11.57;;;16.70;99.90;;;;;;5013460;28;20040;-81
2021/07/22 03:51:33;;;;;;;15.60;11.43;;;16.70;99.90;;;;;;5010007;28;20408;-81
2021/07/22 03:53:59;;;;;;;14.15;11.40;;;16.70;99.90;;;;;;5026977;28;20049;-81
2021/07/22 03:56:26;;;;;;;15.75;11.32;;;16.80;99.90;;;;;;5018823;28;20045;-81
2021/07/22 03:59:21;;;;;;;15.95;12.48;;;16.80;99.90;;;;;;5033716;28;20045;-80
2021/07/22 04:01:52;;;;;;;15.90;12.45;;;16.80;99.90;;;;;;5043011;28;20032;-80
2021/07/22 04:04:23;;;;;;;14.20;11.23;;;16.80;99.90;;;;;;5013002;28;20041;-80
2021/07/22 04:06:52;;;;;;;17.33;12.43;;;16.80;99.90;;;;;;5041806;28;20048;-78
2021/07/22 04:09:40;;;;;;;16.10;12.43;;;16.80;99.90;;;;;;5012163;28;20049;-78
2021/07/22 04:12:26;;;;;;;16.23;12.48;;;16.80;99.90;;;;;;5018571;28;20055;-79
2021/07/22 04:15:13;;;;;;;17.90;11.73;;;16.70;99.90;;;;;;5022831;28;20045;-79
2021/07/22 04:18:02;;;;;;;16.95;12.32;;;16.70;99.90;;;;;;5045304;28;20500;-79
2021/07/22 04:20:59;;;;;;;16.50;12.27;;;16.70;99.90;;;;;;5025929;28;20045;-78
2021/07/22 04:23:39;;;;;;;16.75;12.70;;;16.70;99.90;;;;;;5009385;28;20053;-79
2021/07/22 04:26:15;;;;;;;;;;;16.80;99.90;;;;;;5044848;28;20045;-79
2021/07/22 04:29:08;;;;;;;18.45;11.63;;;16.80;99.90;;;;;;5030788;28;19940;-79
2021/07/22 04:31:35;;;;;;;14.27;10.90;;;16.80;99.90;;;;;;5024994;28;20029;-79
2021/07/22 04:34:24;;;;;;;16.35;12.05;;;16.80;99.90;;;;;;5037304;28;20400;-79
2021/07/22 04:37:23;;;;;;;15.65;11.25;;;16.80;99.90;;;;;;5030580;28;20526;-80
2021/07/22 04:40:25;;;;;;;13.60;10.73;;;16.80;99.90;;;;;;5025643;28;20041;-81
2021/07/22 04:43:03;;;;;;;15.45;11.45;;;16.80;99.90;;;;;;5024935;28;20056;-81
2021/07/22 04:46:03;;;;;;;16.70;13.07;;;16.90;99.90;;;;;;5032298;28;20044;-81
2021/07/22 04:48:45;;;;;;;13.30;11.00;;;16.90;99.90;;;;;;5025427;28;20041;-81
2021/07/22 04:51:33;;;;;;;14.15;11.70;;;16.90;99.90;;;;;;5043703;28;20092;-81
2021/07/22 04:54:08;;;;;;;18.52;14.00;;;17.00;99.90;;;;;;5026524;28;20143;-79
2021/07/22 04:56:35;;;;;;;16.95;12.85;;;17.00;99.90;;;;;;5010386;28;20053;-79
2021/07/22 04:59:02;;;;;;;14.88;12.32;;;17.10;99.90;;;;;;4994258;28;20045;-79
2021/07/22 05:01:30;;;;;;;19.95;13.63;;;17.10;99.90;;;;;;5027147;28;20041;-78
2021/07/22 05:03:59;;;;;;;17.60;14.07;;;17.20;99.90;;;;;;5042591;28;20033;-80
2021/07/22 05:06:38;;;;;;;21.50;15.93;;;17.30;99.90;;;;;;5012239;28;20059;-80
2021/07/22 05:09:15;;;;;;;25.65;18.60;;;17.40;99.90;;;;;;5016828;28;20033;-79
2021/07/22 05:12:09;;;;;;;21.65;15.52;;;17.40;99.90;;;;;;5011047;28;20053;-80
2021/07/22 05:14:57;;;;;;;32.58;18.13;;;17.40;99.90;;;;;;5010324;28;20047;-79
2021/07/22 05:17:39;;;;;;;23.17;15.38;;;17.50;99.90;;;;;;4998584;28;20041;-79
2021/07/22 05:20:37;;;;;;;17.75;14.25;;;17.60;99.90;;;;;;5029139;28;20040;-79
2021/07/22 05:23:13;;;;;;;18.27;12.85;;;17.70;99.90;;;;;;5005365;28;20381;-79
2021/07/22 05:25:49;;;;;;;16.30;10.90;;;17.80;99.90;;;;;;5011170;28;20044;-79
2021/07/22 05:28:39;;;;;;;20.05;12.57;;;17.90;99.90;;;;;;4997852;28;20041;-79
2021/07/22 05:31:13;;;;;;;19.65;15.45;;;18.10;99.90;;;;;;5023452;28;20579;-81
2021/07/22 05:33:48;;;;;;;14.60;11.88;;;18.20;99.90;;;;;;5027216;28;20041;-82
2021/07/22 05:36:41;;;;;;;17.85;13.30;;;18.20;99.90;;;;;;5012544;28;20045;-82
2021/07/22 05:39:20;;;;;;;18.40;14.40;;;18.30;99.90;;;;;;5028356;28;20033;-81
2021/07/22 05:41:47;;;;;;;22.02;16.23;;;18.40;99.90;;;;;;5042680;28;20981;-81
2021/07/22 05:44:13;;;;;;;20.42;14.82;;;18.50;99.90;;;;;;5009318;28;20477;-81
2021/07/22 05:46:40;;;;;;;17.17;14.25;;;18.40;99.90;;;;;;5042725;28;20037;-81
2021/07/22 05:49:06;;;;;;;16.67;13.70;;;18.50;99.90;;;;;;5022174;28;20045;-80
2021/07/22 05:51:33;;;;;;;18.15;14.02;;;18.60;99.90;;;;;;5042369;28;20052;-81
2021/07/22 05:54:00;;;;;;;14.65;12.45;;;18.70;99.90;;;;;;5009471;28;20041;-80
2021/07/22 05:56:26;;;;;;;17.38;13.63;;;18.90;99.90;;;;;;5022044;28;20060;-80
2021/07/22 05:58:54;;;;;;;14.82;12.40;;;19.00;99.90;;;;;;5045386;28;20029;-81
2021/07/22 06:01:21;;;;;;;16.42;14.10;;;19.10;99.90;;;;;;5044331;28;20392;-80
2021/07/22 06:03:47;;;;;;;17.42;13.45;;;19.20;99.90;;;;;;5043454;28;20040;-80
2021/07/22 06:06:14;;;;;;;18.10;12.95;;;19.30;99.90;;;;;;5042921;28;20041;-80
2021/07/22 06:08:40;;;;;;;17.85;13.05;;;19.40;99.90;;;;;;5027725;28;20479;-80
2021/07/22 06:11:07;;;;;;;20.00;16.08;;;19.60;99.90;;;;;;5020574;28;20527;-80
2021/07/22 06:13:34;;;;;;;16.30;12.45;;;19.70;99.90;;;;;;5026401;28;20041;-80
2021/07/22 06:16:01;;;;;;;13.65;11.38;;;19.80;99.90;;;;;;5043686;28;20029;-79
2021/07/22 06:18:29;;;;;;;19.88;14.82;;;20.00;99.90;;;;;;5043748;28;20056;-79
2021/07/22 06:20:57;;;;;;;16.88;13.00;;;20.30;99.90;;;;;;5017837;28;20037;-80
2021/07/22 06:23:23;;;;;;;15.55;11.95;;;20.50;99.90;;;;;;5041128;28;20060;-80
2021/07/22 06:25:56;;;;;;;16.98;12.50;;;20.70;99.90;;;;;;5021322;28;20881;-80
2021/07/22 06:28:23;;;;;;;15.07;12.90;;;20.90;99.90;;;;;;5020947;28;20034;-80
2021/07/22 06:30:53;;;;;;;15.07;12.50;;;21.00;99.90;;;;;;5048200;28;20052;-82
2021/07/22 06:33:21;;;;;;;19.20;13.43;;;21.10;99.90;;;;;;5008814;28;20128;-80
2021/07/22 06:35:47;;;;;;;15.48;12.77;;;21.20;99.90;;;;;;5029008;28;20041;-80
2021/07/22 06:38:14;;;;;;;16.73;13.65;;;21.30;99.90;;;;;;5022765;28;20058;-79
2021/07/22 06:40:42;;;;;;;17.48;13.88;;;21.40;99.80;;;;;;5045816;28;20591;-80
2021/07/22 06:43:10;;;;;;;13.90;12.38;;;21.40;99.80;;;;;;5045103;28;20033;-80
2021/07/22 06:45:38;;;;;;;16.00;13.77;;;21.60;99.70;;;;;;5046277;28;20033;-78
2021/07/22 06:48:05;;;;;;;16.17;14.45;;;21.80;99.20;;;;;;5044954;28;20601;-79
2021/07/22 06:50:32;;;;;;;16.35;13.20;;;22.00;98.60;;;;;;5044581;28;20075;-78
2021/07/22 06:53:02;;;;;;;18.95;14.45;;;22.10;98.10;;;;;;5043695;28;20036;-78
2021/07/22 06:55:28;;;;;;;15.00;12.02;;;22.30;97.40;;;;;;5027298;28;20048;-78
2021/07/22 06:57:55;;;;;;;13.35;10.95;;;22.40;97.20;;;;;;5029636;28;20037;-79
2021/07/22 07:00:22;;;;;;;14.95;12.65;;;22.40;96.80;;;;;;5028755;28;20041;-78
2021/07/22 07:02:49;;;;;;;16.65;12.27;;;22.40;96.40;;;;;;5042310;28;20484;-78
2021/07/22 07:05:15;;;;;;;13.60;10.75;;;22.30;96.40;;;;;;5007687;28;20490;-78
2021/07/22 07:07:41;;;;;;;15.23;11.98;;;22.40;96.30;;;;;;5044856;28;20044;-78
2021/07/22 07:10:08;;;;;;;14.02;11.40;;;22.50;96.20;;;;;;5046294;28;20056;-77
2021/07/22 07:12:34;;;;;;;15.57;10.85;;;22.70;95.50;;;;;;5010099;28;20057;-78
2021/07/22 07:15:01;;;;;;;13.48;11.15;;;22.90;95.40;;;;;;5027727;28;20049;-79
2021/07/22 07:17:27;;;;;;;13.85;9.73;;;23.10;95.40;;;;;;5045472;28;20033;-79
2021/07/22 07:19:54;;;;;;;12.95;9.60;;;23.30;94.90;;;;;;5011284;28;20051;-78
2021/07/22 07:22:20;;;;;;;12.35;9.88;;;23.40;94.60;;;;;;4994735;28;20041;-78
2021/07/22 07:24:46;;;;;;;14.02;9.40;;;23.40;94.20;;;;;;5043795;28;20078;-78
2021/07/22 07:27:13;;;;;;;12.00;9.70;;;23.30;94.30;;;;;;5046818;28;20033;-79
2021/07/22 07:29:40;;;;;;;12.00;10.55;;;23.20;94.40;;;;;;5029655;28;20488;-80
2021/07/22 07:32:06;;;;;;;13.32;10.18;;;23.00;94.50;;;;;;5043983;28;20067;-81
2021/07/22 07:34:33;;;;;;;12.10;9.70;;;22.90;94.30;;;;;;5046042;28;20041;-84
2021/07/22 07:36:59;;;;;;;9.52;8.52;;;22.80;94.40;;;;;;4980702;28;20048;-82
2021/07/22 07:39:25;;;;;;;13.75;11.25;;;22.80;94.60;;;;;;5013438;28;20052;-80
2021/07/22 07:41:52;;;;;;;13.43;10.23;;;22.80;94.40;;;;;;5042466;28;20037;-80
2021/07/22 07:44:18;;;;;;;14.93;11.23;;;22.70;94.40;;;;;;5046919;28;20041;-78
2021/07/22 07:46:45;;;;;;;12.43;10.95;;;22.70;94.60;;;;;;5043675;28;20053;-79
2021/07/22 07:49:11;;;;;;;15.95;14.18;;;22.70;94.60;;;;;;5046482;28;20531;-81
2021/07/22 07:51:38;;;;;;;15.55;13.77;;;22.90;94.60;;;;;;5012186;28;20049;-80
2021/07/22 07:54:04;;;;;;;17.95;15.55;;;23.20;94.30;;;;;;5043825;28;20060;-79
2021/07/22 07:56:31;;;;;;;15.43;12.95;;;23.30;93.60;;;;;;5047785;28;20040;-81
2021/07/22 07:58:57;;;;;;;15.90;11.20;;;23.20;93.20;;;;;;5028771;28;20041;-80
2021/07/22 08:01:27;;;;;;;16.13;14.43;;;23.00;93.40;;;;;;5009531;28;20760;-83
2021/07/22 08:03:53;;;;;;;11.73;10.38;;;23.00;93.50;;;;;;5028062;28;20045;-82
2021/07/22 08:06:19;;;;;;;14.88;13.27;;;23.00;93.30;;;;;;5009599;28;20053;-83
2021/07/22 08:08:46;;;;;;;10.95;9.88;;;23.20;93.30;;;;;;5011619;28;20094;-79
2021/07/22 08:11:12;;;;;;;11.30;10.13;;;23.50;93.00;;;;;;5027900;28;20068;-80
2021/07/22 08:13:39;;;;;;;10.77;9.07;;;23.80;92.10;;;;;;5044178;28;20916;-79
2021/07/22 08:16:05;;;;;;;10.93;9.70;;;24.00;91.80;;;;;;5012013;28;20045;-80
2021/07/22 08:18:32;;;;;;;16.35;13.57;;;24.00;91.50;;;;;;4995767;28;20060;-81
2021/07/22 08:20:58;;;;;;;12.68;10.40;;;24.00;90.80;;;;;;5044207;28;20037;-79
2021/07/22 08:23:25;;;;;;;10.43;9.25;;;24.00;91.00;;;;;;5043072;28;20048;-79
2021/07/22 08:25:51;;;;;;;14.90;10.93;;;24.00;91.20;;;;;;5046308;28;20041;-79
2021/07/22 08:28:18;;;;;;;11.77;10.10;;;23.90;90.80;;;;;;5028976;28;20048;-78
2021/07/22 08:30:44;;;;;;;11.10;9.15;;;23.80;90.90;;;;;;5030084;28;20035;-82
2021/07/22 08:33:11;;;;;;;10.38;9.02;;;23.70;90.90;;;;;;5006237;28;20048;-79
2021/07/22 08:35:37;;;;;;;16.35;12.07;;;23.70;90.60;;;;;;5007449;28;20052;-78
2021/07/22 08:38:03;;;;;;;13.13;8.85;;;23.80;90.20;;;;;;5041491;28;20032;-80
2021/07/22 08:40:32;;;;;;;9.48;7.88;;;23.70;90.30;;;;;;5042549;28;20048;-82
2021/07/22 08:43:03;;;;;;;9.55;7.97;;;23.70;90.30;;;;;;5041751;28;20059;-79
2021/07/22 08:45:30;;;;;;;10.47;9.33;;;23.80;90.00;;;;;;5042907;28;20037;-81
2021/07/22 08:47:58;;;;;;;9.57;8.55;;;23.80;89.20;;;;;;5026834;28;20456;-78
2021/07/22 08:50:25;;;;;;;11.90;8.85;;;23.90;88.70;;;;;;5043211;28;20029;-80
2021/07/22 08:52:51;;;;;;;11.60;9.90;;;23.90;89.30;;;;;;5046125;28;20393;-79
2021/07/22 08:55:19;;;;;;;11.60;9.32;;;24.20;87.90;;;;;;5053084;28;20052;-78
2021/07/22 08:57:46;;;;;;;9.07;6.47;;;24.30;87.30;;;;;;5045076;28;20052;-78
2021/07/22 09:00:16;;;;;;;8.70;7.03;;;24.60;86.70;;;;;;5024191;28;20037;-79
2021/07/22 09:02:43;;;;;;;10.35;8.18;;;24.90;84.70;;;;;;5041449;28;20388;-79
2021/07/22 09:05:10;;;;;;;10.77;7.60;;;25.10;82.40;;;;;;5042208;28;20041;-80
2021/07/22 09:07:37;;;;;;;8.95;7.22;;;25.30;82.10;;;;;;5027858;28;20048;-80
2021/07/22 09:10:06;;;;;;;7.25;6.55;;;25.50;81.30;;;;;;5028028;28;20037;-80
2021/07/22 09:12:45;;;;;;;8.27;5.88;;;25.40;80.70;;;;;;5041004;28;20758;-80
2021/07/22 09:15:35;;;;;;;7.47;5.85;;;25.30;81.30;;;;;;5043757;28;20037;-80
2021/07/22 09:18:22;;;;;;;7.00;6.03;;;25.30;81.10;;;;;;5026962;28;20064;-80
2021/07/22 09:20:49;;;;;;;6.22;4.60;;;25.10;80.90;;;;;;4996836;28;20056;-80
2021/07/22 09:23:23;;;;;;;6.10;5.15;;;25.10;81.30;;;;;;5043531;28;20040;-81
2021/07/22 09:25:51;;;;;;;6.03;5.38;;;25.30;81.30;;;;;;5043096;28;20045;-80
2021/07/22 09:28:27;;;;;;;5.20;4.70;;;25.60;80.50;;;;;;5043748;28;20037;-79
2021/07/22 09:31:04;;;;;;;6.43;5.22;;;25.90;78.80;;;;;;5044149;28;20040;-79
2021/07/22 09:33:43;;;;;;;6.05;5.45;;;26.00;77.10;;;;;;5015723;28;20045;-80
2021/07/22 09:36:18;;;;;;;8.55;5.80;;;25.90;76.70;;;;;;5044736;28;20048;-80
2021/07/22 09:38:45;;;;;;;7.20;5.70;;;25.90;76.90;;;;;;5009119;28;20040;-78
2021/07/22 09:41:23;;;;;;;6.15;5.30;;;26.10;77.10;;;;;;5041773;28;20045;-78
2021/07/22 09:43:50;;;;;;;7.30;5.70;;;26.20;77.30;;;;;;5039458;28;20033;-78
2021/07/22 09:46:17;;;;;;;8.18;5.72;;;26.10;76.20;;;;;;5043583;28;20084;-79
2021/07/22 09:49:09;;;;;;;7.03;6.28;;;25.90;76.00;;;;;;5027303;28;20045;-79
2021/07/22 09:51:37;;;;;;;5.65;4.93;;;25.60;75.90;;;;;;5026178;28;20037;-79
2021/07/22 09:54:12;;;;;;;6.82;5.40;;;25.30;76.50;;;;;;5042334;28;20040;-79
2021/07/22 09:56:40;;;;;;;9.38;6.15;;;25.00;76.80;;;;;;5043988;28;21135;-79
2021/07/22 09:59:08;;;;;;;5.60;4.95;;;24.80;77.40;;;;;;5042792;28;21655;-79
2021/07/22 10:01:45;;;;;;;7.97;4.95;;;24.70;78.00;;;;;;5040222;28;20079;-79
2021/07/22 10:04:13;;;;;;;6.65;5.95;;;24.80;78.30;;;;;;5041454;28;20033;-79
2021/07/22 10:06:44;;;;;;;8.07;5.35;;;24.80;78.00;;;;;;5025023;28;20048;-79
2021/07/22 10:09:16;;;;;;;9.40;5.50;;;24.90;77.90;;;;;;5041435;28;20053;-76
2021/07/22 10:11:43;;;;;;;5.63;5.05;;;24.80;77.10;;;;;;5044037;28;20029;-77
2021/07/22 10:14:12;;;;;;;7.38;5.05;;;24.80;77.50;;;;;;5042714;28;20059;-77
2021/07/22 10:16:38;;;;;;;6.85;4.97;;;24.90;77.50;;;;;;5028471;28;20047;-78
2021/07/22 10:19:05;;;;;;;6.35;4.70;;;25.00;77.40;;;;;;5045769;28;20518;-77
2021/07/22 10:21:31;;;;;;;8.68;6.90;;;25.10;77.80;;;;;;5045924;28;20799;-77
2021/07/22 10:23:58;;;;;;;7.40;5.10;;;25.30;77.10;;;;;;5030000;28;20049;-78
2021/07/22 10:26:25;;;;;;;5.07;4.50;;;25.50;76.90;;;;;;5048411;28;20037;-78
2021/07/22 10:28:53;;;;;;;6.03;5.05;;;25.70;75.70;;;;;;5047008;28;20056;-79
2021/07/22 10:31:21;;;;;;;5.95;4.13;;;26.00;74.30;;;;;;5047083;28;20047;-77
2021/07/22 10:33:53;;;;;;;6.70;4.03;;;26.20;74.10;;;;;;5025191;28;20040;-78
2021/07/22 10:36:20;;;;;;;5.28;4.53;;;26.40;73.40;;;;;;5029213;28;20033;-78
2021/07/22 10:38:48;;;;;;;5.22;4.15;;;26.70;72.90;;;;;;5047670;28;20040;-78
2021/07/22 10:41:41;;;;;;;6.45;4.57;;;26.80;71.70;;;;;;5046276;28;20024;-78
2021/07/22 10:44:19;;;;;;;5.10;4.60;;;26.80;71.50;;;;;;5025794;28;20068;-78
2021/07/22 10:46:57;;;;;;;6.85;4.70;;;26.70;71.90;;;;;;5025862;28;20503;-78
2021/07/22 10:49:41;;;;;;;5.35;4.18;;;26.70;71.90;;;;;;5044403;28;20400;-79
2021/07/22 10:52:13;;;;;;;8.23;4.72;;;26.50;72.00;;;;;;5045139;28;20037;-78
2021/07/22 10:54:51;;;;;;;11.30;9.60;;;26.40;71.90;;;;;;5010969;28;20876;-77
2021/07/22 10:57:33;;;;;;;6.07;5.47;;;26.30;71.80;;;;;;5011158;28;20476;-78
2021/07/22 11:00:00;;;;;;;5.75;4.78;;;26.30;71.90;;;;;;5028643;28;20049;-79
2021/07/22 11:02:42;;;;;;;5.35;4.85;;;26.40;72.00;;;;;;5008305;28;20037;-78
2021/07/22 11:05:21;;;;;;;6.43;5.80;;;26.50;71.30;;;;;;5045398;28;20488;-80
2021/07/22 11:08:25;;;;;;;8.52;7.18;;;26.50;71.40;;;;;;5011357;28;20132;-79
2021/07/22 11:11:03;;;;;;;6.53;4.47;;;26.30;70.50;;;;;;5032341;28;20056;-81
2021/07/22 11:13:33;;;;;;;5.97;4.63;;;26.40;72.70;;;;;;5025252;28;20041;-80
2021/07/22 11:16:01;;;;;;;7.72;5.85;;;27.20;72.70;;;;;;5012069;28;20064;-79
2021/07/22 11:18:44;;;;;;;10.55;8.13;;;27.90;70.00;;;;;;5028281;28;20041;-79
2021/07/22 11:21:33;;;;;;;6.03;4.60;;;28.10;68.20;;;;;;5044739;28;20056;-80
2021/07/22 11:24:19;;;;;;;7.40;4.95;;;28.10;68.20;;;;;;5007367;28;20033;-79
2021/07/22 11:26:51;;;;;;;5.95;5.35;;;28.10;67.50;;;;;;5015817;28;20076;-79
2021/07/22 11:29:19;;;;;;;5.55;4.65;;;28.00;67.10;;;;;;5009463;28;20056;-80
2021/07/22 11:31:49;;;;;;;4.55;4.00;;;28.00;67.40;;;;;;5012832;28;20053;-80
2021/07/22 11:34:24;;;;;;;5.70;4.45;;;28.00;67.00;;;;;;5028274;28;20060;-80
2021/07/22 11:36:56;;;;;;;7.25;5.55;;;28.20;66.90;;;;;;5043929;28;20049;-80
2021/07/22 11:39:41;;;;;;;7.28;5.85;;;28.30;66.20;;;;;;5028590;28;20523;-79
2021/07/22 11:42:10;;;;;;;5.00;4.20;;;28.10;65.70;;;;;;5045346;28;20519;-79
2021/07/22 11:44:38;;;;;;;5.22;4.65;;;28.10;65.90;;;;;;5011287;28;20046;-80
2021/07/22 11:47:12;;;;;;;4.75;4.35;;;28.50;65.70;;;;;;5012807;28;20049;-80
2021/07/22 11:49:38;;;;;;;4.95;4.40;;;29.10;64.10;;;;;;5045209;28;20091;-80
2021/07/22 11:52:05;;;;;;;4.03;3.35;;;29.40;63.20;;;;;;5045034;28;20056;-80
2021/07/22 11:54:31;;;;;;;4.90;3.55;;;29.70;62.70;;;;;;5028535;28;20048;-80
2021/07/22 11:56:58;;;;;;;4.50;3.58;;;30.40;62.00;;;;;;5028992;28;20041;-79
2021/07/22 11:59:33;;;;;;;4.40;3.60;;;31.10;59.90;;;;;;5046030;28;20048;-80
2021/07/22 12:02:00;;;;;;;8.40;7.05;;;31.30;57.30;;;;;;5028343;28;20060;-80
2021/07/22 12:04:34;;;;;;;6.85;6.18;;;30.80;57.50;;;;;;5021310;28;20056;-80
2021/07/22 12:07:03;;;;;;;8.77;7.97;;;30.30;58.70;;;;;;5043647;28;20033;-80
2021/07/22 12:09:30;;;;;;;5.93;4.55;;;29.90;58.90;;;;;;5047023;28;20037;-79
2021/07/22 12:12:00;;;;;;;4.88;4.32;;;29.50;59.40;;;;;;5027097;28;20045;-80
2021/07/22 12:14:37;;;;;;;4.55;3.85;;;29.10;60.40;;;;;;5044377;28;20044;-79
2021/07/22 12:17:06;;;;;;;5.13;3.80;;;28.90;60.80;;;;;;5047032;28;20495;-79
2021/07/22 12:19:36;;;;;;;4.45;3.90;;;29.00;60.50;;;;;;5029697;28;20029;-79
2021/07/22 12:22:40;;;;;;;4.10;3.70;;;29.40;59.70;;;;;;5043857;28;20547;-80
2021/07/22 12:25:07;;;;;;;4.28;3.72;;;30.40;58.80;;;;;;5044594;28;20029;-84
2021/07/22 12:27:53;;;;;;;4.63;3.33;;;31.40;56.80;;;;;;5046927;28;20112;-83
2021/07/22 12:30:31;;;;;;;4.10;3.70;;;32.30;54.70;;;;;;5045086;28;20033;-83
2021/07/22 12:33:01;;;;;;;5.53;3.50;;;32.70;53.00;;;;;;5027822;28;20144;-84
2021/07/22 12:35:31;;;;;;;6.95;4.00;;;33.20;51.60;;;;;;5045389;28;20045;-80
2021/07/22 12:38:02;;;;;;;3.45;2.67;;;33.60;50.70;;;;;;5045037;28;20056;-79
2021/07/22 12:40:38;;;;;;;3.65;2.95;;;33.90;49.40;;;;;;5044664;28;20036;-80
2021/07/22 12:43:06;;;;;;;3.65;3.10;;;33.50;48.70;;;;;;5029949;28;20048;-79
2021/07/22 12:45:33;;;;;;;4.15;3.30;;;32.70;49.40;;;;;;5044970;28;20044;-83
2021/07/22 12:48:00;;;;;;;3.42;2.90;;;31.80;50.30;;;;;;5010606;28;20056;-82
2021/07/22 12:50:31;;;;;;;2.92;2.60;;;31.50;51.40;;;;;;5026496;28;20393;-82
2021/07/22 12:53:03;;;;;;;3.20;2.90;;;31.80;50.50;;;;;;5043954;28;20037;-84
2021/07/22 12:55:41;;;;;;;3.97;3.25;;;32.40;50.10;;;;;;5010008;28;20064;-85
2021/07/22 12:58:24;;;;;;;4.70;2.65;;;33.00;48.50;;;;;;4993857;28;20061;-83